Flight Track Log - Related Links

Times and Time Zones

All times are in EDT time to prevent confusion due to time zone crossing. See the EJA396 flight status page for this flight to view local times or setup timezone preferences in your user account.

Time Position Orientation Groundspeed Altitude Reporting Facility
EDT Latitude Longitude Course Direction KTS MPH feet Rate Location/Type
Wed 04:58:51 PM 42.7589 -73.8058 337° Northwest 150 173 1,300  Level Boston Center
Wed 04:59:51 PM 42.8108 -73.8353 337° Northwest 203 234 4,000 2,900 Climbing Boston Center
Wed 05:00:51 PM 42.8664 -73.8792 330° Northwest 263 303 7,100 3,223 Climbing Boston Center
Wed 05:01:52 PM 42.9222 -73.9286 327° Northwest 258 297 10,500 3,738 Climbing Boston Center
Wed 05:02:53 PM 42.9900 -73.9897 327° Northwest 264 304 14,700 3,700 Climbing Boston Center
Wed 05:03:52 PM 43.0497 -74.0483 324° Northwest 278 320 17,900 2,550 Climbing Boston Center
Wed 05:04:53 PM 43.0708 -74.1767 283° West 300 345 19,800 962 Climbing Boston Center
Wed 05:06:03 PM 43.0806 -74.3503 274° West 374 430 20,000 92 Climbing Boston Center
Wed 05:07:03 PM 43.0886 -74.4842 275° West 391 450 20,000  Level Boston Center
Wed 05:08:04 PM 43.0961 -74.6467 274° West 391 450 20,000  Level Boston Center
Wed 05:09:04 PM 43.1017 -74.7806 273° West 391 450 20,000  Level Boston Center
Wed 05:10:05 PM 43.1069 -74.9286 273° West 391 450 20,000 -303 Level Boston Center
Wed 05:11:03 PM 43.1178 -75.0939 275° West 397 457 19,400 -1,017 Descending Boston Center
Wed 05:12:03 PM 43.1250 -75.2281 274° West 397 457 18,000 -1,450 Descending Boston Center
Wed 05:13:03 PM 43.1278 -75.3647 272° West 385 443 16,500 -992 Descending Boston Center
Wed 05:14:04 PM 43.1344 -75.5044 274° West 378 435 16,000 -246 Descending Boston Center
Wed 05:15:05 PM 43.1411 -75.6472 274° West 373 429 16,000  Level Boston Center
Wed 05:16:05 PM 43.1453 -75.7897 272° West 373 429 16,000  Level Boston Center
Wed 05:17:05 PM 43.1514 -75.9325 273° West 378 435 16,000  Level Boston Center
Wed 05:18:03 PM 43.1553 -76.0722 272° West 378 435 16,000  Level Boston Center
Wed 05:19:03 PM 43.1589 -76.2175 272° West 378 435 16,000  Level Boston Center
Wed 05:20:53 PM 43.1542 -76.4706 269° West 374 430 16,000  Level Cleveland Center
Wed 05:21:55 PM 43.1497 -76.6122 268° West 374 430 16,000  Level Cleveland Center
Wed 05:22:45 PM 43.1464 -76.7567 268° West 375 432 16,000 -97 Level Cleveland Center
Wed 05:22:57 PM 43.1447 -76.7825 265° West 375 432 15,900 -1,000 Descending Cleveland Center
Wed 05:23:09 PM 43.1456 -76.8114 272° West 374 430 15,600 -1,742 Descending Cleveland Center
Wed 05:23:59 PM 43.1425 -76.9236 268° West 374 430 14,100 -2,182 Descending Cleveland Center
Wed 05:24:15 PM 43.1411 -76.9694 268° West 367 422 13,200 -2,381 Descending Cleveland Center
Wed 05:25:02 PM 43.1381 -77.0558 267° West 347 399 11,600 -2,328 Descending Cleveland Center
Wed 05:25:22 PM 43.1375 -77.1047 269° West 326 375 10,600 -2,323 Descending Cleveland Center
Wed 05:26:04 PM 43.1342 -77.1761 266° West 320 368 9,200 -2,164 Descending Cleveland Center
Wed 05:26:23 PM 43.1242 -77.2169 251° West 290 334 8,400 -1,935 Descending Cleveland Center
Wed 05:27:06 PM 43.1058 -77.2769 247° West 291 335 7,200 -2,182 Descending Cleveland Center
Wed 05:27:29 PM 43.0908 -77.3328 250° West 277 319 6,000 -2,323 Descending Cleveland Center
Wed 05:28:08 PM 43.0719 -77.3925 247° West 281 323 4,800 -1,967 Descending Cleveland Center
Wed 05:28:30 PM 43.0667 -77.4308 259° West 269 310 4,000 -1,935 Descending Cleveland Center
Wed 05:29:10 PM 43.0547 -77.4914 255° West 273 314 2,800 -1,959 Descending Cleveland Center
Wed 05:29:19 PM 43.0533 -77.5111 265° West 262 302 2,400 -677 Descending Cleveland Center
Wed 05:30:12 PM 43.0489 -77.5794 265° West 249 287 2,100 -333 Descending Cleveland Center
Wed 05:30:13 PM 43.0492 -77.5853 274° West 205 236 2,100  Level Cleveland Center
Wed 05:31:14 PM 43.0461 -77.6569 267° West 222 255 2,100 -347 Level Cleveland Center
Wed 05:32:14 PM 43.0714 -77.7128 302° West 122 140 1,400 -581 Descending Cleveland Center
Wed 05:32:16 PM 43.0653 -77.7103 163° South 180 207 1,500 -689 Climbing Cleveland Center
Wed 05:33:15 PM 43.0994 -77.6942 19° North 110 127 700 -871 Descending Cleveland Center
Wed 05:33:18 PM 43.1003 -77.6911 70° East 132 152 600 -185 Descending Cleveland Center
Wed 05:34:20 PM 43.1178 -77.6761 32° Northeast 101 116 500 -97 Descending Cleveland Center

Login

Don't have an account? Register now (free) for customized features, flight alerts, and more!